Pomorze — C6WU2 — position and weather

sailwx.info

Track history (hours):
 
Tides and Currents Weather Stations Pressure Air Temp Water Temp Dewpoint Dewpoint Depression Visibility Wind Speed Wind Dir Waves Ship Positions

Pomorze

Last reported at 2018-Jan-12 12:59 UTC. Time now 2018-Jan-21 14:46 UTC.
Position N 27°44' W 015°17'.
Warning: this ship's position is 9 days out of date.

Length 189 m; draft 6.2 m.

Type: Ship. MMSI: 311358000.

Date/timePositionNaut miles runAvg speedWind from/ knotsBaromVisibWave heightAir tempDewpointWater temp
2018-Jan-12 12:59N 27°44' W 015°17'613.1
2018-Jan-12 12:30N 27°51' W 015°16'613.1
2018-Jan-12 12:00N 27°57' W 015°16'612.9
2018-Jan-12 11:30N 28°03' W 015°16'510.2
2018-Jan-12 11:00N 28°06' W 015°21'3 5.0
2018-Jan-12 10:30N 28°06' W 015°24'0 0.2
2018-Jan-12 09:58N 28°06' W 015°24'0 0.0
2018-Jan-12 09:19N 28°06' W 015°24'0 0.0
2018-Jan-12 08:49N 28°06' W 015°24'0 0.0
2018-Jan-12 08:19N 28°06' W 015°24'0 0.0
2018-Jan-12 07:52N 28°06' W 015°24'0 0.0
2018-Jan-12 07:22N 28°06' W 015°24'0 0.0
2018-Jan-12 06:52N 28°06' W 015°24'0 0.0
2018-Jan-12 06:22N 28°06' W 015°24'0 0.0
2018-Jan-12 05:52N 28°06' W 015°24'0 0.0
2018-Jan-12 05:25N 28°06' W 015°24'0 0.1
2018-Jan-12 04:55N 28°06' W 015°24'0 0.5
2018-Jan-12 04:26N 28°06' W 015°24'2 4.0
2018-Jan-12 04:00N 28°07' W 015°22'5 9.2
2018-Jan-12 03:30N 28°08' W 015°17'5 9.2
2018-Jan-12 03:00N 28°09' W 015°12'612.3
2018-Jan-12 02:30N 28°11' W 015°05'611.8
2018-Jan-12 02:00N 28°13' W 014°59'612.6
2018-Jan-12 01:30N 28°18' W 014°56'612.3
2018-Jan-12 01:00N 28°24' W 014°53'612.5
2018-Jan-12 00:30N 28°29' W 014°48'612.7
2018-Jan-12 00:00N 28°33' W 014°43'612.7
2018-Jan-11 23:30N 28°38' W 014°39'  
2018-Jan-03 03:25N 33°08' W 008°38'0 0.0
2018-Jan-02 19:52N 33°08' W 008°38'0 0.0
2018-Jan-02 13:46N 33°08' W 008°38'  
Track history (hours):
 
Tides and Currents Weather Stations Pressure Air Temp Water Temp Dewpoint Dewpoint Depression Visibility Wind Speed Wind Dir Waves Ship Positions

Pomorze

Last reported at 2018-Jan-12 12:59 UTC. Time now 2018-Jan-21 14:46 UTC.
Position N 27°44' W 015°17'.
Warning: this ship's position is 9 days out of date.

Length 189 m; draft 6.2 m.

Type: Ship. MMSI: 311358000.

Date/timePositionNaut miles runAvg speedWind from/ knotsBaromVisibWave heightAir tempDewpointWater temp
2018-Jan-12 12:59N 27°44' W 015°17'613.1
2018-Jan-12 12:30N 27°51' W 015°16'613.1
2018-Jan-12 12:00N 27°57' W 015°16'612.9
2018-Jan-12 11:30N 28°03' W 015°16'510.2
2018-Jan-12 11:00N 28°06' W 015°21'3 5.0
2018-Jan-12 10:30N 28°06' W 015°24'0 0.2
2018-Jan-12 09:58N 28°06' W 015°24'0 0.0
2018-Jan-12 09:19N 28°06' W 015°24'0 0.0
2018-Jan-12 08:49N 28°06' W 015°24'0 0.0
2018-Jan-12 08:19N 28°06' W 015°24'0 0.0
2018-Jan-12 07:52N 28°06' W 015°24'0 0.0
2018-Jan-12 07:22N 28°06' W 015°24'0 0.0
2018-Jan-12 06:52N 28°06' W 015°24'0 0.0
2018-Jan-12 06:22N 28°06' W 015°24'0 0.0
2018-Jan-12 05:52N 28°06' W 015°24'0 0.0
2018-Jan-12 05:25N 28°06' W 015°24'0 0.1
2018-Jan-12 04:55N 28°06' W 015°24'0 0.5
2018-Jan-12 04:26N 28°06' W 015°24'2 4.0
2018-Jan-12 04:00N 28°07' W 015°22'5 9.2
2018-Jan-12 03:30N 28°08' W 015°17'5 9.2
2018-Jan-12 03:00N 28°09' W 015°12'612.3
2018-Jan-12 02:30N 28°11' W 015°05'611.8
2018-Jan-12 02:00N 28°13' W 014°59'612.6
2018-Jan-12 01:30N 28°18' W 014°56'612.3
2018-Jan-12 01:00N 28°24' W 014°53'612.5
2018-Jan-12 00:30N 28°29' W 014°48'612.7
2018-Jan-12 00:00N 28°33' W 014°43'612.7
2018-Jan-11 23:30N 28°38' W 014°39'  
2018-Jan-03 03:25N 33°08' W 008°38'0 0.0
2018-Jan-02 19:52N 33°08' W 008°38'0 0.0
2018-Jan-02 13:46N 33°08' W 008°38'  

Dump ship's entire track history